»·PEaware :: N2102W KSBP-KSBA

N2102W :: KSBP-KSBA

FLIGHT INFORMATION

Flight Status: Arrived
Operator: Privately registered:
United States
More flights under this callsign
Pilot: Eric G. (5941)
Aircraft: DASSAULT AVIATION FALCON 50
(FA50)
More flights by this aircraft type
Origin: KSBP San Luis Co Regl
United States
Destination: KSBA Santa Barbara Mun
United States
More flights between these airports :: More routes between these airports
Route: +CREPE3 MQO V27 GVO
File this flight plan on PilotEdge
Remarks:
Altitude:
(Current/Filed)
11,000ft
Speed:
(Current/Filed)
325kts
Departed: 10-Feb-19 08:29 AM
Arrived: 10-Feb-19 08:58 AM
Distance/Time
Traveled:
63nm/0:29
Distance/Time
To Go:
Arrived

Flight Plot

Page will automatically refresh every two minutes.


Map Options




Map Legend


Flown Route
Filed Route
Departure Airport
Arrival Airport
Navaid (VOR, NDB)
Fix

Horizontal Profiles

Position Reports

Time Latitude Longitude Heading Altitude Ground
Speed
10-Feb-19 08:04 35.239059 -120.641583 356 217ft 0kts
10-Feb-19 08:04 35.239059 -120.641583 356 217ft 0kts
10-Feb-19 08:05 35.239059 -120.641583 356 217ft 0kts
10-Feb-19 08:06 35.239060 -120.641583 356 217ft 0kts
10-Feb-19 08:07 35.239060 -120.641583 356 217ft 0kts
10-Feb-19 08:08 35.239058 -120.641676 258 217ft 0kts
10-Feb-19 08:09 35.239057 -120.641678 258 217ft 0kts
10-Feb-19 08:10 35.239057 -120.641680 258 217ft 0kts
10-Feb-19 08:11 35.239057 -120.641682 258 217ft 0kts
10-Feb-19 08:12 35.239056 -120.641685 258 217ft 0kts
10-Feb-19 08:13 35.239056 -120.641688 258 217ft 0kts
10-Feb-19 08:14 35.239088 -120.641786 327 217ft 0kts
10-Feb-19 08:15 35.239089 -120.641787 327 217ft 0kts
10-Feb-19 08:16 35.239090 -120.641788 327 217ft 0kts
10-Feb-19 08:17 35.239092 -120.641789 327 217ft 0kts
10-Feb-19 08:18 35.239093 -120.641790 327 217ft 0kts
10-Feb-19 08:19 35.239108 -120.641902 228 217ft 3kts
10-Feb-19 08:20 35.237849 -120.639999 122 217ft 8kts
10-Feb-19 08:21 35.236538 -120.637706 123 217ft 8kts
10-Feb-19 08:22 35.235193 -120.635341 124 217ft 8kts
10-Feb-19 08:23 35.233817 -120.632932 123 217ft 8kts
10-Feb-19 08:24 35.233307 -120.632586 213 217ft 0kts
10-Feb-19 08:25 35.233305 -120.632587 213 217ft 0kts
10-Feb-19 08:26 35.233303 -120.632588 213 217ft 0kts
10-Feb-19 08:27 35.232811 -120.633025 279 217ft 2kts
10-Feb-19 08:28 35.245134 -120.654577 300 571ft 162kts
10-Feb-19 08:29 35.278401 -120.702197 302 3503ft 198kts
10-Feb-19 08:30 35.307331 -120.770106 294 4895ft 260kts
10-Feb-19 08:31 35.342633 -120.834425 314 4697ft 207kts
10-Feb-19 08:32 35.367216 -120.888305 231 5091ft 232kts
10-Feb-19 08:33 35.304392 -120.916576 205 5196ft 228kts
10-Feb-19 08:34 35.265465 -120.872640 107 6823ft 253kts
10-Feb-19 08:35 35.251723 -120.789331 104 8572ft 286kts
10-Feb-19 08:36 35.210321 -120.712142 140 10270ft 306kts
10-Feb-19 08:37 35.148331 -120.640109 146 11020ft 375kts
10-Feb-19 08:38 35.058785 -120.560803 150 11007ft 381kts
10-Feb-19 08:39 34.979455 -120.495687 149 11010ft 361kts
10-Feb-19 08:40 34.907806 -120.427849 149 10948ft 290kts
10-Feb-19 08:41 34.848764 -120.371071 148 10939ft 253kts
10-Feb-19 08:42 34.797142 -120.318910 148 10947ft 232kts
10-Feb-19 08:43 34.742723 -120.264822 149 10965ft 271kts
10-Feb-19 08:44 34.678561 -120.208232 151 10967ft 295kts
10-Feb-19 08:45 34.610632 -120.149977 151 10970ft 299kts
10-Feb-19 08:46 34.544893 -120.094082 154 10956ft 254kts
10-Feb-19 08:47 34.488001 -120.051286 159 9417ft 242kts
10-Feb-19 08:48 34.425320 -120.031173 173 7795ft 239kts
10-Feb-19 08:49 34.358527 -120.015720 174 5807ft 244kts
10-Feb-19 08:50 34.325337 -120.054620 305 4058ft 222kts
10-Feb-19 08:51 34.372534 -120.068024 352 3988ft 205kts
10-Feb-19 08:52 34.420682 -120.044603 71 3695ft 208kts
10-Feb-19 08:53 34.426708 -119.976417 83 2270ft 185kts
10-Feb-19 08:54 34.426076 -119.925878 93 1337ft 139kts
10-Feb-19 08:55 34.426979 -119.882131 88 419ft 127kts
10-Feb-19 08:56 34.427686 -119.846256 86 15ft 63kts
10-Feb-19 08:57 34.428547 -119.841988 346 15ft 0kts
10-Feb-19 08:58 34.429962 -119.841840 59 15ft 7kts
10-Feb-19 08:59 34.431126 -119.838438 65 15ft 13kts
10-Feb-19 09:00 34.432283 -119.834649 68 15ft 9kts
10-Feb-19 09:01 34.432725 -119.834193 339 15ft 0kts
10-Feb-19 09:02 34.432725 -119.834193 339 15ft 0kts

Navigation Log

Ident Type
Flight plan parsing failed, navigation log unavailable